createdAt,value
2019-02-18T00:02:22.458Z,99908.98
2019-02-18T00:04:50.866Z,99900.23
2019-02-18T00:07:19.290Z,99899.20
2019-02-18T00:09:47.719Z,99902.67
2019-02-18T00:12:16.033Z,99902.23
2019-02-18T00:14:44.429Z,99909.00
2019-02-18T00:17:12.801Z,99901.95
2019-02-18T00:19:41.182Z,99899.16
2019-02-18T00:22:09.611Z,99896.42
2019-02-18T00:24:37.999Z,99892.02
2019-02-18T00:27:06.364Z,99898.60
2019-02-18T00:29:34.754Z,99901.68
2019-02-18T00:32:03.187Z,99900.73
2019-02-18T00:34:31.586Z,99896.72
2019-02-18T00:37:00.015Z,99895.33
2019-02-18T00:39:28.474Z,99895.44
2019-02-18T00:41:56.832Z,99903.84
2019-02-18T00:44:25.297Z,99906.23
2019-02-18T00:46:53.647Z,99903.92
2019-02-18T00:49:22.040Z,99902.33
2019-02-18T00:51:50.407Z,99913.25
2019-02-18T00:54:18.798Z,99911.29
2019-02-18T00:56:47.167Z,99910.94
2019-02-18T00:59:15.570Z,99917.13
2019-02-18T01:01:43.994Z,99904.67
2019-02-18T01:04:12.391Z,99910.11
2019-02-18T01:06:40.752Z,99914.53
2019-02-18T01:09:09.221Z,99909.00
2019-02-18T01:11:37.575Z,99911.61
2019-02-18T01:14:06.043Z,99903.17
2019-02-18T01:16:34.408Z,99904.52
2019-02-18T01:19:02.865Z,99901.14
2019-02-18T01:21:31.368Z,99898.62
2019-02-18T01:23:59.762Z,99897.41
2019-02-18T01:26:28.121Z,99896.08
2019-02-18T01:28:56.529Z,99900.13
2019-02-18T01:31:24.958Z,99897.55
2019-02-18T01:33:53.310Z,99899.70
2019-02-18T01:36:23.165Z,99902.30
2019-02-18T01:38:51.654Z,99898.16
2019-02-18T01:41:20.050Z,99900.42
2019-02-18T01:43:48.429Z,99901.90
2019-02-18T01:46:16.801Z,99912.52
2019-02-18T01:48:45.171Z,99899.42
2019-02-18T01:51:13.576Z,99902.13
2019-02-18T01:53:41.946Z,99902.25
2019-02-18T01:56:10.337Z,99897.05
2019-02-18T01:58:38.713Z,99895.48
2019-02-18T02:01:07.167Z,99892.88
2019-02-18T02:03:35.605Z,99893.58
2019-02-18T02:06:04.067Z,99886.63
2019-02-18T02:08:32.487Z,99882.42
2019-02-18T02:11:00.884Z,99883.62
2019-02-18T02:13:31.415Z,99881.33
2019-02-18T02:16:00.926Z,99882.23
2019-02-18T02:18:29.381Z,99882.34
2019-02-18T02:20:57.847Z,99879.05
2019-02-18T02:23:26.278Z,99875.62
2019-02-18T02:25:54.680Z,99871.28
2019-02-18T02:28:23.033Z,99875.48
2019-02-18T02:30:51.500Z,99871.50
2019-02-18T02:33:19.860Z,99869.29
2019-02-18T02:35:48.247Z,99862.06
2019-02-18T02:38:16.683Z,99872.50
2019-02-18T02:40:45.141Z,99871.95
2019-02-18T02:43:13.586Z,99866.77
2019-02-18T02:45:41.945Z,99864.13
2019-02-18T02:48:10.486Z,99860.94
2019-02-18T02:50:38.922Z,99867.84
2019-02-18T02:53:07.338Z,99876.64
2019-02-18T02:55:35.763Z,99872.47
2019-02-18T02:58:04.231Z,99873.91
2019-02-18T03:00:32.673Z,99875.12
2019-02-18T03:03:01.072Z,99872.22
2019-02-18T03:05:29.504Z,99861.87
2019-02-18T03:07:57.922Z,99868.64
2019-02-18T03:10:26.265Z,99849.45
2019-02-18T03:12:54.735Z,99847.75
2019-02-18T03:15:23.099Z,99847.75
2019-02-18T03:17:51.555Z,99859.71
2019-02-18T03:20:19.991Z,99859.70
2019-02-18T03:22:48.385Z,99864.05
2019-02-18T03:25:24.676Z,99867.59
2019-02-18T03:28:13.335Z,99867.59
2019-02-18T03:30:47.744Z,99867.09
2019-02-18T03:33:21.902Z,99861.67
2019-02-18T03:35:50.243Z,99855.09
2019-02-18T03:38:18.641Z,99851.09
2019-02-18T03:40:47.092Z,99853.17
2019-02-18T03:43:15.483Z,99856.85
2019-02-18T03:45:43.909Z,99856.85
2019-02-18T03:48:12.298Z,99863.27
2019-02-18T03:50:40.655Z,99857.01
2019-02-18T03:53:09.126Z,99855.83
2019-02-18T03:55:37.567Z,99861.63
2019-02-18T03:58:06.032Z,99863.78
2019-02-18T04:00:34.487Z,99866.31
2019-02-18T04:03:02.926Z,99855.96
2019-02-18T04:05:31.510Z,99858.41
2019-02-18T04:07:59.940Z,99857.59
2019-02-18T04:10:28.326Z,99855.01
2019-02-18T04:12:56.687Z,99859.22
2019-02-18T04:15:25.146Z,99855.45
2019-02-18T04:17:53.503Z,99849.10
2019-02-18T04:20:21.896Z,99857.64
2019-02-18T04:22:50.256Z,99860.37
2019-02-18T04:25:18.658Z,99857.01
2019-02-18T04:27:47.020Z,99851.03
2019-02-18T04:30:15.491Z,99855.23
2019-02-18T04:32:43.920Z,99861.63
2019-02-18T04:35:12.318Z,99858.28
2019-02-18T04:37:40.678Z,99847.97
2019-02-18T04:40:09.433Z,99856.01
2019-02-18T04:42:40.158Z,99846.67
2019-02-18T04:45:10.534Z,99845.73
2019-02-18T04:47:42.741Z,99847.96
2019-02-18T04:50:13.210Z,99850.13
2019-02-18T04:52:41.571Z,99858.44
2019-02-18T04:55:11.110Z,99851.24
2019-02-18T04:57:39.546Z,99861.03
2019-02-18T05:00:09.727Z,99869.39
2019-02-18T05:02:38.060Z,99869.39
2019-02-18T05:05:10.927Z,99868.94
2019-02-18T05:07:39.329Z,99868.55
2019-02-18T05:10:12.049Z,99864.71
2019-02-18T05:12:40.408Z,99864.71
2019-02-18T05:15:09.541Z,99859.89
2019-02-18T05:17:37.932Z,99867.67
2019-02-18T05:20:07.454Z,99869.77
2019-02-18T05:22:35.891Z,99865.89
2019-02-18T05:25:05.920Z,99858.72
2019-02-18T05:27:34.292Z,99860.85
2019-02-18T05:30:02.817Z,99860.75
2019-02-18T05:32:31.614Z,99859.52
2019-02-18T05:35:02.426Z,99859.52
2019-02-18T05:37:30.762Z,99851.80
2019-02-18T05:39:59.139Z,99853.57
2019-02-18T05:42:27.571Z,99858.94
2019-02-18T05:44:56.681Z,99855.98
2019-02-18T05:47:25.098Z,99855.98
2019-02-18T05:49:53.734Z,99853.95
2019-02-18T05:52:22.217Z,99846.23
2019-02-18T05:54:50.544Z,99850.06
2019-02-18T05:57:19.013Z,99847.02
2019-02-18T05:59:47.434Z,99844.92
2019-02-18T06:02:16.623Z,99844.91
2019-02-18T06:04:45.108Z,99845.74
2019-02-18T06:07:13.454Z,99846.59
2019-02-18T06:09:41.820Z,99846.66
2019-02-18T06:12:10.278Z,99846.38
2019-02-18T06:14:38.632Z,99846.38
2019-02-18T06:17:07.099Z,99844.08
2019-02-18T06:19:35.459Z,99847.87
2019-02-18T06:22:03.926Z,99849.23
2019-02-18T06:24:32.299Z,99841.98
2019-02-18T06:27:00.690Z,99841.98
2019-02-18T06:29:29.112Z,99836.97
2019-02-18T06:31:57.592Z,99846.69
2019-02-18T06:34:25.932Z,99855.69
2019-02-18T06:36:54.349Z,99847.95
2019-02-18T06:39:22.710Z,99847.95
2019-02-18T06:41:51.125Z,99850.66
2019-02-18T06:44:21.110Z,99856.53
2019-02-18T06:46:54.063Z,99856.98
2019-02-18T06:49:22.568Z,99855.70
2019-02-18T06:51:50.956Z,99856.62
2019-02-18T06:54:19.387Z,99856.62
2019-02-18T06:56:55.520Z,99864.71
2019-02-18T06:59:25.751Z,99863.42
2019-02-18T07:02:01.946Z,99866.05
2019-02-18T07:04:38.026Z,99869.86
2019-02-18T07:07:24.578Z,99857.80
2019-02-18T07:09:54.683Z,99857.80
2019-02-18T07:12:24.729Z,99866.78
2019-02-18T07:14:53.096Z,99870.19
2019-02-18T07:17:21.553Z,99886.00
2019-02-18T07:19:50.001Z,99874.42
2019-02-18T07:22:18.833Z,99880.72
2019-02-18T07:24:47.212Z,99880.72
2019-02-18T07:27:15.571Z,99881.08
2019-02-18T07:29:44.035Z,99881.08
2019-02-18T07:32:12.405Z,99883.55
2019-02-18T07:34:40.804Z,99881.78
2019-02-18T07:37:09.198Z,99881.78
2019-02-18T07:39:37.603Z,99884.42
2019-02-18T07:42:06.058Z,99882.24
2019-02-18T07:44:34.482Z,99876.95
2019-02-18T07:47:02.920Z,99877.80
2019-02-18T07:49:31.319Z,99885.95
2019-02-18T07:51:59.687Z,99876.25
2019-02-18T07:54:28.074Z,99875.09
2019-02-18T07:56:56.506Z,99874.09
2019-02-18T07:59:24.930Z,99875.45
2019-02-18T08:01:53.268Z,99871.07
2019-02-18T08:04:21.759Z,99867.62
2019-02-18T08:06:50.163Z,99873.11
2019-02-18T08:09:18.564Z,99868.73
2019-02-18T08:11:46.934Z,99877.72
2019-02-18T08:14:15.329Z,99873.24
2019-02-18T08:16:43.684Z,99877.50
2019-02-18T08:19:12.067Z,99877.45
2019-02-18T08:21:40.479Z,99871.66
2019-02-18T08:24:08.912Z,99875.08
2019-02-18T08:26:38.593Z,99871.11
2019-02-18T08:29:07.023Z,99874.41
2019-02-18T08:31:35.454Z,99869.97
2019-02-18T08:34:04.889Z,99867.30
2019-02-18T08:36:33.311Z,99857.27
2019-02-18T08:39:01.721Z,99849.00
2019-02-18T08:41:30.089Z,99856.20
2019-02-18T08:43:58.491Z,99858.17
2019-02-18T08:46:26.915Z,99863.77
2019-02-18T08:48:55.276Z,99853.37
2019-02-18T08:51:23.720Z,99849.34
2019-02-18T08:53:52.128Z,99860.77
2019-02-18T08:56:20.519Z,99858.02
2019-02-18T08:58:48.909Z,99856.20
2019-02-18T09:01:17.287Z,99848.65
2019-02-18T09:03:45.662Z,99856.02
2019-02-18T09:06:14.058Z,99856.72
2019-02-18T09:08:42.433Z,99847.06
2019-02-18T09:11:10.900Z,99852.41
2019-02-18T09:13:39.293Z,99842.77
2019-02-18T09:16:07.777Z,99840.81
2019-02-18T09:18:36.292Z,99842.00
2019-02-18T09:21:04.967Z,99838.30
2019-02-18T09:23:52.976Z,99824.86
2019-02-18T09:26:21.531Z,99830.47
2019-02-18T09:28:50.077Z,99835.48
2019-02-18T09:31:20.146Z,99819.02
2019-02-18T09:33:48.683Z,99821.85
2019-02-18T09:36:17.121Z,99819.09
2019-02-18T09:38:45.460Z,99812.52
2019-02-18T09:41:13.997Z,99814.13
2019-02-18T09:43:42.480Z,99816.11
2019-02-18T09:46:10.977Z,99825.47
2019-02-18T09:48:39.390Z,99814.33
2019-02-18T09:51:07.859Z,99809.17
2019-02-18T09:53:36.339Z,99812.07
2019-02-18T09:56:04.837Z,99811.41
2019-02-18T09:58:33.286Z,99810.28
2019-02-18T10:01:01.739Z,99810.28
2019-02-18T10:03:31.929Z,99807.30
2019-02-18T10:06:00.387Z,99803.30
2019-02-18T10:08:28.937Z,99796.69
2019-02-18T10:10:57.304Z,99799.86
2019-02-18T10:13:25.923Z,99791.83
2019-02-18T10:15:54.340Z,99793.34
2019-02-18T10:18:22.764Z,99789.91
2019-02-18T10:20:51.197Z,99800.19
2019-02-18T10:23:19.703Z,99798.38
2019-02-18T10:25:48.209Z,99795.42
2019-02-18T10:28:16.645Z,99795.13
2019-02-18T10:30:45.014Z,99783.27
2019-02-18T10:33:13.507Z,99778.52
2019-02-18T10:35:41.871Z,99780.17
2019-02-18T10:38:10.344Z,99774.84
2019-02-18T10:40:38.702Z,99769.02
2019-02-18T10:43:07.236Z,99766.67
2019-02-18T10:45:35.575Z,99768.67
2019-02-18T10:48:04.124Z,99761.74
2019-02-18T10:50:32.585Z,99765.59
2019-02-18T10:53:01.359Z,99756.76
2019-02-18T10:55:29.945Z,99749.42
2019-02-18T10:57:58.538Z,99749.05
2019-02-18T11:00:28.141Z,99738.04
2019-02-18T11:02:56.614Z,99728.44
2019-02-18T11:05:25.026Z,99727.55
2019-02-18T11:07:53.800Z,99720.50
2019-02-18T11:10:22.143Z,99721.97
2019-02-18T11:12:50.528Z,99723.66
2019-02-18T11:15:18.939Z,99709.13
2019-02-18T11:17:47.526Z,99713.91
2019-02-18T11:20:15.921Z,99700.80
2019-02-18T11:22:44.489Z,99700.23
2019-02-18T11:25:16.052Z,99695.48
2019-02-18T11:27:44.394Z,99690.30
2019-02-18T11:30:17.093Z,99679.53
2019-02-18T11:32:45.585Z,99671.95
2019-02-18T11:35:14.113Z,99667.70
2019-02-18T11:37:42.453Z,99657.69
2019-02-18T11:40:13.280Z,99651.69
2019-02-18T11:42:41.707Z,99647.87
2019-02-18T11:45:14.961Z,99644.02
2019-02-18T11:47:43.398Z,99650.80
2019-02-18T11:50:15.294Z,99648.28
2019-02-18T11:52:43.779Z,99643.95
2019-02-18T11:55:15.289Z,99635.93
2019-02-18T11:57:44.160Z,99631.05
2019-02-18T12:00:17.111Z,99628.52
2019-02-18T12:02:45.453Z,99617.96
2019-02-18T12:05:14.111Z,99617.60
2019-02-18T12:07:42.548Z,99613.19
2019-02-18T12:10:11.994Z,99611.41
2019-02-18T12:12:40.902Z,99614.98
2019-02-18T12:15:16.009Z,99608.41
2019-02-18T12:17:44.426Z,99605.41
2019-02-18T12:20:16.406Z,99605.50
2019-02-18T12:22:44.841Z,99607.55
2019-02-18T12:25:13.743Z,99597.02
2019-02-18T12:27:42.627Z,99587.73
2019-02-18T12:30:18.521Z,99581.63
2019-02-18T12:32:52.856Z,99576.66
2019-02-18T12:35:30.465Z,99580.11
2019-02-18T12:37:55.436Z,99580.02
2019-02-18T12:40:22.856Z,99584.33
2019-02-18T12:42:51.213Z,99572.78
2019-02-18T12:45:19.760Z,99565.27
2019-02-18T12:47:48.310Z,99572.27
2019-02-18T12:50:20.706Z,99567.31
2019-02-18T12:52:50.448Z,99556.00
2019-02-18T12:55:19.181Z,99552.48
2019-02-18T12:57:47.584Z,99562.92
2019-02-18T13:00:16.661Z,99552.52
2019-02-18T13:02:45.433Z,99545.64
2019-02-18T13:05:14.798Z,99542.72
2019-02-18T13:07:43.291Z,99543.86
2019-02-18T13:10:12.125Z,99537.02
2019-02-18T13:12:41.699Z,99533.63
2019-02-18T13:15:18.011Z,99538.66
2019-02-18T13:17:47.562Z,99534.23
2019-02-18T13:20:15.946Z,99524.94
2019-02-18T13:22:45.500Z,99516.23
2019-02-18T13:25:14.283Z,99522.50
2019-02-18T13:27:42.677Z,99511.58
2019-02-18T13:30:21.680Z,99512.13
2019-02-18T13:32:50.035Z,99507.45
2019-02-18T13:35:18.483Z,99498.15
2019-02-18T13:37:46.905Z,99504.52
2019-02-18T13:40:16.257Z,99500.22
2019-02-18T13:42:45.160Z,99498.34
2019-02-18T13:45:13.590Z,99499.24
2019-02-18T13:47:42.086Z,99494.45
2019-02-18T13:50:14.152Z,99495.96
2019-02-18T13:52:42.548Z,99489.96
2019-02-18T13:55:12.238Z,99484.81
2019-02-18T13:57:41.232Z,99488.86
2019-02-18T14:00:17.135Z,99479.09
2019-02-18T14:02:46.642Z,99489.78
2019-02-18T14:05:15.750Z,99477.20
2019-02-18T14:07:44.906Z,99497.33
2019-02-18T14:10:13.628Z,99483.95
2019-02-18T14:12:42.322Z,99481.42
2019-02-18T14:15:13.576Z,99471.81
2019-02-18T14:17:42.022Z,99475.37
2019-02-18T14:20:14.718Z,99482.05
2019-02-18T14:22:43.186Z,99478.62
2019-02-18T14:25:12.138Z,99475.42
2019-02-18T14:27:40.591Z,99480.15
2019-02-18T14:30:12.116Z,99474.85
2019-02-18T14:32:40.501Z,99469.97
2019-02-18T14:35:09.288Z,99471.92
2019-02-18T14:37:37.738Z,99465.59
2019-02-18T14:40:07.377Z,99470.05
2019-02-18T14:42:35.828Z,99469.17
2019-02-18T14:45:05.007Z,99464.11
2019-02-18T14:47:33.469Z,99473.47
2019-02-18T14:50:01.817Z,99469.95
2019-02-18T14:52:30.439Z,99460.36
2019-02-18T14:54:58.798Z,99459.70
2019-02-18T14:57:27.177Z,99466.70
2019-02-18T14:59:55.516Z,99461.19
2019-02-18T15:02:23.988Z,99465.27
2019-02-18T15:04:52.961Z,99465.86
2019-02-18T15:07:21.499Z,99459.03
2019-02-18T15:09:49.916Z,99456.98
2019-02-18T15:12:19.482Z,99450.09
2019-02-18T15:14:48.000Z,99450.18
2019-02-18T15:17:16.374Z,99451.68
2019-02-18T15:19:44.726Z,99453.00
2019-02-18T15:22:13.170Z,99451.97
2019-02-18T15:24:41.585Z,99455.09
2019-02-18T15:27:10.319Z,99448.78
2019-02-18T15:29:38.663Z,99449.34
2019-02-18T15:32:07.194Z,99457.28
2019-02-18T15:34:35.622Z,99442.33
2019-02-18T15:37:03.967Z,99446.30
2019-02-18T15:39:33.405Z,99444.53
2019-02-18T15:42:01.826Z,99450.03
2019-02-18T15:44:31.187Z,99451.30
2019-02-18T15:46:59.680Z,99448.41
2019-02-18T15:49:28.072Z,99454.25
2019-02-18T15:51:56.510Z,99451.12
2019-02-18T15:54:24.962Z,99447.77
2019-02-18T15:56:55.193Z,99446.02
2019-02-18T15:59:25.205Z,99452.63
2019-02-18T16:01:53.718Z,99450.72
2019-02-18T16:04:22.733Z,99447.22
2019-02-18T16:06:51.833Z,99445.34
2019-02-18T16:09:20.392Z,99447.47
2019-02-18T16:11:49.313Z,99445.95
2019-02-18T16:14:18.574Z,99443.91
2019-02-18T16:16:46.997Z,99451.13
2019-02-18T16:19:15.541Z,99451.20
2019-02-18T16:21:43.961Z,99447.69
2019-02-18T16:24:19.610Z,99449.66
2019-02-18T16:26:42.419Z,99446.13
2019-02-18T16:29:10.886Z,99454.40
2019-02-18T16:31:39.419Z,99453.22
2019-02-18T16:34:08.385Z,99456.28
2019-02-18T16:36:37.187Z,99463.23
2019-02-18T16:39:06.546Z,99465.52
2019-02-18T16:41:36.230Z,99462.74
2019-02-18T16:44:04.897Z,99464.16
2019-02-18T16:46:33.621Z,99464.83
2019-02-18T16:49:02.389Z,99462.53
2019-02-18T16:51:30.874Z,99466.14
2019-02-18T16:54:00.948Z,99465.88
2019-02-18T16:56:29.385Z,99469.19
2019-02-18T16:58:58.212Z,99467.59
2019-02-18T17:01:26.631Z,99469.30
2019-02-18T17:03:55.082Z,99468.55
2019-02-18T17:06:23.498Z,99475.19
2019-02-18T17:08:51.883Z,99471.91
2019-02-18T17:11:20.351Z,99476.69
2019-02-18T17:13:48.831Z,99480.72
2019-02-18T17:16:17.569Z,99487.38
2019-02-18T17:18:46.290Z,99486.11
2019-02-18T17:21:18.537Z,99491.75
2019-02-18T17:23:46.971Z,99493.59
2019-02-18T17:26:17.156Z,99489.86
2019-02-18T17:28:45.509Z,99490.04
2019-02-18T17:31:14.441Z,99496.64
2019-02-18T17:33:42.792Z,99492.59
2019-02-18T17:36:11.175Z,99494.57
2019-02-18T17:38:39.593Z,99491.16
2019-02-18T17:41:08.116Z,99497.70
2019-02-18T17:43:36.467Z,99498.25
2019-02-18T17:46:04.921Z,99492.13
2019-02-18T17:48:33.264Z,99493.44
2019-02-18T17:51:01.639Z,99496.59
2019-02-18T17:53:30.008Z,99493.14
2019-02-18T17:55:58.694Z,99494.05
2019-02-18T17:58:27.041Z,99494.33
2019-02-18T18:00:58.851Z,99498.33
2019-02-18T18:03:27.374Z,99497.44
2019-02-18T18:05:55.752Z,99498.91
2019-02-18T18:08:24.178Z,99502.92
2019-02-18T18:10:52.568Z,99505.31
2019-02-18T18:13:25.073Z,99502.84
2019-02-18T18:15:51.021Z,99513.06
2019-02-18T18:18:19.846Z,99504.73
2019-02-18T18:20:48.441Z,99502.11
2019-02-18T18:23:17.700Z,99505.30
2019-02-18T18:25:47.710Z,99507.03
2019-02-18T18:28:16.070Z,99509.36
2019-02-18T18:30:44.544Z,99509.86
2019-02-18T18:33:13.182Z,99503.27
2019-02-18T18:35:41.649Z,99500.56
2019-02-18T18:38:10.074Z,99504.22
2019-02-18T18:40:38.531Z,99504.72
2019-02-18T18:43:07.065Z,99498.31
2019-02-18T18:45:35.579Z,99498.78
2019-02-18T18:48:04.007Z,99498.55
2019-02-18T18:50:32.399Z,99495.30
2019-02-18T18:53:00.827Z,99497.41
2019-02-18T18:55:29.290Z,99493.35
2019-02-18T18:57:57.719Z,99491.50
2019-02-18T19:00:26.862Z,99493.50
2019-02-18T19:02:55.242Z,99495.12
2019-02-18T19:05:23.732Z,99497.32
2019-02-18T19:07:52.347Z,99497.26
2019-02-18T19:10:20.768Z,99504.11
2019-02-18T19:12:49.392Z,99502.70
2019-02-18T19:15:18.687Z,99506.09
2019-02-18T19:17:48.755Z,99505.66
2019-02-18T19:20:17.248Z,99507.94
2019-02-18T19:22:45.703Z,99514.81
2019-02-18T19:25:14.326Z,99508.52
2019-02-18T19:27:42.938Z,99508.31
2019-02-18T19:30:15.110Z,99513.00
2019-02-18T19:32:43.983Z,99517.92
2019-02-18T19:35:12.501Z,99516.28
2019-02-18T19:37:40.969Z,99514.76
2019-02-18T19:40:12.089Z,99521.21
2019-02-18T19:42:40.605Z,99519.58
2019-02-18T19:45:12.862Z,99517.53
2019-02-18T19:47:43.373Z,99521.85
2019-02-18T19:50:11.974Z,99521.43
2019-02-18T19:52:41.249Z,99520.46
2019-02-18T19:55:15.457Z,99523.32
2019-02-18T19:57:43.931Z,99527.48
2019-02-18T20:00:17.576Z,99525.92
2019-02-18T20:02:46.042Z,99529.84
2019-02-18T20:05:14.560Z,99534.08
2019-02-18T20:07:44.262Z,99532.81
2019-02-18T20:10:13.134Z,99529.43
2019-02-18T20:12:41.772Z,99537.03
2019-02-18T20:15:13.047Z,99543.91
2019-02-18T20:17:41.553Z,99544.52
2019-02-18T20:20:14.392Z,99540.23
2019-02-18T20:22:42.592Z,99538.97
2019-02-18T20:25:11.183Z,99531.31
2019-02-18T20:27:39.645Z,99536.67
2019-02-18T20:30:11.166Z,99532.62
2019-02-18T20:32:39.640Z,99531.86
2019-02-18T20:35:11.153Z,99527.30
2019-02-18T20:37:39.618Z,99530.73
2019-02-18T20:40:09.524Z,99525.42
2019-02-18T20:42:38.457Z,99527.46
2019-02-18T20:45:14.588Z,99526.92
2019-02-18T20:47:43.699Z,99522.41
2019-02-18T20:50:15.809Z,99531.62
2019-02-18T20:52:44.401Z,99530.86
2019-02-18T20:55:16.867Z,99531.83
2019-02-18T20:57:46.092Z,99535.47
2019-02-18T21:00:19.366Z,99531.20
2019-02-18T21:02:48.010Z,99534.57
2019-02-18T21:05:16.370Z,99531.16
2019-02-18T21:07:44.805Z,99536.05
2019-02-18T21:10:16.273Z,99540.31
2019-02-18T21:12:44.700Z,99538.02
2019-02-18T21:15:13.162Z,99545.72
2019-02-18T21:17:41.520Z,99548.61
2019-02-18T21:20:11.657Z,99548.05
2019-02-18T21:22:40.064Z,99542.66
2019-02-18T21:25:10.569Z,99545.87
2019-02-18T21:27:39.002Z,99543.82
2019-02-18T21:30:18.086Z,99540.96
2019-02-18T21:32:47.828Z,99543.42
2019-02-18T21:35:16.251Z,99543.16
2019-02-18T21:37:45.356Z,99543.89
2019-02-18T21:40:13.888Z,99541.22
2019-02-18T21:42:42.486Z,99548.42
2019-02-18T21:45:15.768Z,99547.12
2019-02-18T21:47:44.275Z,99542.75
2019-02-18T21:50:15.692Z,99537.73
2019-02-18T21:52:44.456Z,99540.45
2019-02-18T21:55:13.424Z,99544.55
2019-02-18T21:57:41.966Z,99549.34
2019-02-18T22:00:20.653Z,99544.19
2019-02-18T22:02:49.886Z,99546.90
2019-02-18T22:05:19.153Z,99544.24
2019-02-18T22:07:48.124Z,99544.94
2019-02-18T22:10:16.655Z,99537.11
2019-02-18T22:12:45.084Z,99536.46
2019-02-18T22:15:15.551Z,99538.73
2019-02-18T22:17:43.977Z,99540.10
2019-02-18T22:20:14.501Z,99536.26
2019-02-18T22:22:43.182Z,99545.36
2019-02-18T22:25:12.935Z,99545.12
2019-02-18T22:27:43.322Z,99540.81
2019-02-18T22:30:16.408Z,99536.50
2019-02-18T22:32:45.662Z,99533.73
2019-02-18T22:35:14.913Z,99537.73
2019-02-18T22:37:43.949Z,99538.03
2019-02-18T22:40:13.429Z,99536.96
2019-02-18T22:42:41.944Z,99536.63
2019-02-18T22:45:11.903Z,99537.95
2019-02-18T22:47:40.652Z,99541.50
2019-02-18T22:50:11.094Z,99537.94
2019-02-18T22:52:39.801Z,99538.73
2019-02-18T22:55:09.937Z,99543.48
2019-02-18T22:57:38.713Z,99543.91
2019-02-18T23:00:12.941Z,99547.34
2019-02-18T23:02:44.787Z,99546.88
2019-02-18T23:05:14.207Z,99551.20
2019-02-18T23:07:43.074Z,99555.75
2019-02-18T23:10:12.566Z,99553.98
2019-02-18T23:12:41.402Z,99555.10
2019-02-18T23:15:10.129Z,99553.35
2019-02-18T23:17:38.698Z,99547.98
2019-02-18T23:20:10.188Z,99553.62
2019-02-18T23:22:39.369Z,99554.14
2019-02-18T23:25:08.021Z,99548.44
2019-02-18T23:27:37.387Z,99552.39
2019-02-18T23:30:06.820Z,99550.62
2019-02-18T23:32:35.888Z,99550.62
2019-02-18T23:35:05.763Z,99548.39
2019-02-18T23:37:34.745Z,99552.26
2019-02-18T23:40:03.409Z,99548.70
2019-02-18T23:42:32.284Z,99557.92
2019-02-18T23:45:00.808Z,99548.95
2019-02-18T23:47:29.378Z,99557.12
2019-02-18T23:50:00.753Z,99558.77
2019-02-18T23:52:29.337Z,99557.52
2019-02-18T23:54:57.702Z,99555.59
2019-02-18T23:57:26.525Z,99556.27
2019-02-18T23:59:55.078Z,99564.03
